createdAt,value
2018-09-03T00:01:20.436Z,102233.00
2018-09-03T00:03:49.065Z,102232.26
2018-09-03T00:06:17.662Z,102236.42
2018-09-03T00:08:46.293Z,102229.06
2018-09-03T00:11:14.909Z,102228.67
2018-09-03T00:13:43.554Z,102230.19
2018-09-03T00:16:12.210Z,102221.59
2018-09-03T00:18:41.021Z,102224.45
2018-09-03T00:21:09.646Z,102215.66
2018-09-03T00:23:38.258Z,102215.00
2018-09-03T00:26:06.846Z,102224.27
2018-09-03T00:28:35.505Z,102225.97
2018-09-03T00:31:09.266Z,102223.14
2018-09-03T00:33:43.038Z,102225.78
2018-09-03T00:36:16.858Z,102220.09
2018-09-03T00:38:50.563Z,102221.81
2018-09-03T00:41:24.389Z,102217.17
2018-09-03T00:43:58.219Z,102214.34
2018-09-03T00:46:32.168Z,102214.52
2018-09-03T00:49:00.737Z,102210.09
2018-09-03T00:51:29.392Z,102208.03
2018-09-03T00:53:58.041Z,102204.64
2018-09-03T00:56:26.696Z,102206.16
2018-09-03T00:58:55.309Z,102200.27
2018-09-03T01:01:23.894Z,102200.07
2018-09-03T01:03:52.538Z,102196.69
2018-09-03T01:06:21.121Z,102198.01
2018-09-03T01:08:49.742Z,102194.51
2018-09-03T01:11:18.375Z,102200.00
2018-09-03T01:13:47.017Z,102200.16
2018-09-03T01:16:15.606Z,102201.33
2018-09-03T01:18:45.459Z,102201.53
2018-09-03T01:21:14.039Z,102199.98
2018-09-03T01:23:42.629Z,102194.14
2018-09-03T01:26:11.208Z,102190.06
2018-09-03T01:28:39.949Z,102197.14
2018-09-03T01:31:08.566Z,102193.02
2018-09-03T01:33:37.194Z,102188.96
2018-09-03T01:36:05.788Z,102187.52
2018-09-03T01:38:34.451Z,102185.81
2018-09-03T01:41:03.097Z,102186.78
2018-09-03T01:43:31.707Z,102187.32
2018-09-03T01:46:00.336Z,102183.00
2018-09-03T01:48:28.930Z,102185.64
2018-09-03T01:50:57.655Z,102183.77
2018-09-03T01:53:27.037Z,102181.86
2018-09-03T01:55:55.662Z,102179.78
2018-09-03T01:58:24.313Z,102182.62
2018-09-03T02:00:52.923Z,102175.84
2018-09-03T02:03:21.517Z,102169.53
2018-09-03T02:05:50.196Z,102170.54
2018-09-03T02:08:18.846Z,102168.01
2018-09-03T02:10:47.542Z,102166.22
2018-09-03T02:13:16.170Z,102168.11
2018-09-03T02:15:45.006Z,102161.30
2018-09-03T02:18:13.635Z,102163.56
2018-09-03T02:20:42.278Z,102163.09
2018-09-03T02:23:10.888Z,102167.17
2018-09-03T02:25:39.480Z,102161.02
2018-09-03T02:28:08.056Z,102161.49
2018-09-03T02:30:36.691Z,102169.34
2018-09-03T02:33:05.344Z,102171.48
2018-09-03T02:35:33.922Z,102175.38
2018-09-03T02:38:02.547Z,102174.98
2018-09-03T02:40:31.148Z,102178.59
2018-09-03T02:42:59.748Z,102177.27
2018-09-03T02:45:28.312Z,102180.73
2018-09-03T02:47:56.867Z,102181.70
2018-09-03T02:50:25.461Z,102181.70
2018-09-03T02:52:54.066Z,102178.31
2018-09-03T02:55:22.636Z,102176.13
2018-09-03T02:57:51.184Z,102170.18
2018-09-03T03:00:21.778Z,102168.09
2018-09-03T03:02:50.370Z,102167.99
2018-09-03T03:05:18.914Z,102167.14
2018-09-03T03:07:47.530Z,102164.58
2018-09-03T03:10:16.152Z,102164.69
2018-09-03T03:12:44.743Z,102160.77
2018-09-03T03:15:13.385Z,102165.19
2018-09-03T03:17:41.927Z,102161.48
2018-09-03T03:20:10.631Z,102162.34
2018-09-03T03:22:39.189Z,102165.37
2018-09-03T03:25:07.778Z,102168.01
2018-09-03T03:27:36.348Z,102164.52
2018-09-03T03:30:05.550Z,102171.29
2018-09-03T03:32:34.154Z,102176.75
2018-09-03T03:35:02.768Z,102178.24
2018-09-03T03:37:31.351Z,102175.42
2018-09-03T03:39:59.973Z,102176.45
2018-09-03T03:42:28.670Z,102182.47
2018-09-03T03:44:57.250Z,102177.54
2018-09-03T03:47:25.855Z,102180.57
2018-09-03T03:49:54.533Z,102183.40
2018-09-03T03:52:23.161Z,102186.72
2018-09-03T03:54:51.800Z,102177.38
2018-09-03T03:57:20.428Z,102178.98
2018-09-03T03:59:49.033Z,102180.23
2018-09-03T04:02:17.662Z,102174.73
2018-09-03T04:04:46.290Z,102170.77
2018-09-03T04:07:14.856Z,102170.36
2018-09-03T04:09:43.516Z,102172.25
2018-09-03T04:12:12.145Z,102177.33
2018-09-03T04:14:40.786Z,102171.41
2018-09-03T04:17:09.444Z,102164.34
2018-09-03T04:19:37.976Z,102173.47
2018-09-03T04:22:06.690Z,102164.02
2018-09-03T04:24:35.308Z,102169.12
2018-09-03T04:27:03.947Z,102172.15
2018-09-03T04:29:32.549Z,102167.15
2018-09-03T04:32:01.150Z,102177.48
2018-09-03T04:34:29.746Z,102178.97
2018-09-03T04:36:58.423Z,102172.84
2018-09-03T04:39:27.024Z,102178.97
2018-09-03T04:41:55.640Z,102173.70
2018-09-03T04:44:24.269Z,102177.29
2018-09-03T04:46:52.853Z,102182.39
2018-09-03T04:49:21.521Z,102176.55
2018-09-03T04:51:50.117Z,102183.34
2018-09-03T04:54:18.712Z,102177.14
2018-09-03T04:56:47.331Z,102180.80
2018-09-03T04:59:15.891Z,102181.27
2018-09-03T05:01:44.504Z,102183.80
2018-09-03T05:04:13.047Z,102179.31
2018-09-03T05:06:41.725Z,102174.69
2018-09-03T05:09:10.345Z,102176.39
2018-09-03T05:11:38.965Z,102174.05
2018-09-03T05:14:07.545Z,102176.98
2018-09-03T05:16:36.157Z,102172.27
2018-09-03T05:19:04.914Z,102171.69
2018-09-03T05:21:33.529Z,102175.64
2018-09-03T05:24:02.125Z,102179.21
2018-09-03T05:26:30.774Z,102175.08
2018-09-03T05:28:59.371Z,102186.39
2018-09-03T05:31:27.912Z,102184.60
2018-09-03T05:33:56.537Z,102186.97
2018-09-03T05:36:25.141Z,102183.01
2018-09-03T05:38:53.738Z,102181.69
2018-09-03T05:41:22.370Z,102180.01
2018-09-03T05:43:50.922Z,102186.60
2018-09-03T05:46:19.624Z,102183.75
2018-09-03T05:48:48.241Z,102184.88
2018-09-03T05:51:16.890Z,102194.97
2018-09-03T05:53:46.337Z,102191.38
2018-09-03T05:56:14.906Z,102199.75
2018-09-03T05:58:43.537Z,102208.52
2018-09-03T06:01:12.222Z,102218.91
2018-09-03T06:03:40.911Z,102219.20
2018-09-03T06:06:09.549Z,102221.27
2018-09-03T06:08:38.170Z,102224.70
2018-09-03T06:11:06.842Z,102220.64
2018-09-03T06:13:35.553Z,102222.05
2018-09-03T06:16:04.225Z,102222.23
2018-09-03T06:18:32.889Z,102221.84
2018-09-03T06:21:01.572Z,102224.28
2018-09-03T06:23:30.201Z,102218.03
2018-09-03T06:25:58.816Z,102222.63
2018-09-03T06:28:27.495Z,102223.65
2018-09-03T06:30:56.085Z,102230.53
2018-09-03T06:33:24.709Z,102223.02
2018-09-03T06:35:53.381Z,102224.80
2018-09-03T06:38:22.029Z,102220.73
2018-09-03T06:40:50.694Z,102232.55
2018-09-03T06:43:19.349Z,102229.91
2018-09-03T06:45:47.924Z,102230.37
2018-09-03T06:48:16.514Z,102230.20
2018-09-03T06:50:45.048Z,102233.59
2018-09-03T06:53:13.665Z,102237.67
2018-09-03T06:55:42.399Z,102241.28
2018-09-03T06:58:10.946Z,102240.48
2018-09-03T07:00:39.616Z,102244.91
2018-09-03T07:03:08.303Z,102241.53
2018-09-03T07:05:37.054Z,102239.19
2018-09-03T07:08:06.033Z,102239.30
2018-09-03T07:10:34.787Z,102245.72
2018-09-03T07:13:05.985Z,102244.08
2018-09-03T07:15:35.114Z,102242.41
2018-09-03T07:18:04.310Z,102239.59
2018-09-03T07:20:32.958Z,102240.34
2018-09-03T07:23:01.668Z,102245.62
2018-09-03T07:25:30.362Z,102251.94
2018-09-03T07:27:58.985Z,102253.02
2018-09-03T07:30:27.645Z,102250.16
2018-09-03T07:32:56.335Z,102249.63
2018-09-03T07:35:25.104Z,102250.37
2018-09-03T07:37:53.851Z,102245.38
2018-09-03T07:40:22.541Z,102250.09
2018-09-03T07:42:51.414Z,102250.95
2018-09-03T07:45:20.139Z,102252.94
2018-09-03T07:47:50.127Z,102257.47
2018-09-03T07:50:19.147Z,102250.03
2018-09-03T07:52:47.848Z,102248.89
2018-09-03T07:55:16.516Z,102249.64
2018-09-03T07:57:45.105Z,102251.63
2018-09-03T08:00:13.963Z,102248.70
2018-09-03T08:02:42.647Z,102247.94
2018-09-03T08:05:11.301Z,102250.05
2018-09-03T08:07:39.940Z,102242.97
2018-09-03T08:10:09.861Z,102246.36
2018-09-03T08:12:38.851Z,102248.70
2018-09-03T08:15:07.991Z,102239.45
2018-09-03T08:17:36.681Z,102247.95
2018-09-03T08:20:05.448Z,102247.30
2018-09-03T08:22:34.165Z,102249.12
2018-09-03T08:25:02.807Z,102249.58
2018-09-03T08:27:31.497Z,102250.91
2018-09-03T08:30:00.138Z,102248.13
2018-09-03T08:32:28.887Z,102251.05
2018-09-03T08:34:57.628Z,102250.17
2018-09-03T08:37:26.381Z,102254.14
2018-09-03T08:39:55.018Z,102251.38
2018-09-03T08:42:23.680Z,102253.56
2018-09-03T08:44:52.379Z,102256.02
2018-09-03T08:47:21.007Z,102252.59
2018-09-03T08:49:49.735Z,102247.84
2018-09-03T08:52:18.378Z,102250.67
2018-09-03T08:54:47.029Z,102249.16
2018-09-03T08:57:15.658Z,102253.40
2018-09-03T08:59:44.342Z,102250.91
2018-09-03T09:02:12.963Z,102251.45
2018-09-03T09:04:41.638Z,102253.00
2018-09-03T09:07:10.316Z,102249.68
2018-09-03T09:09:38.996Z,102251.16
2018-09-03T09:12:07.728Z,102256.53
2018-09-03T09:14:36.416Z,102254.14
2018-09-03T09:17:05.033Z,102249.23
2018-09-03T09:19:33.655Z,102252.62
2018-09-03T09:22:02.311Z,102252.03
2018-09-03T09:24:31.063Z,102252.30
2018-09-03T09:26:59.731Z,102251.09
2018-09-03T09:29:28.350Z,102254.33
2018-09-03T09:31:57.005Z,102252.35
2018-09-03T09:34:25.658Z,102255.86
2018-09-03T09:36:54.395Z,102254.41
2018-09-03T09:39:22.962Z,102255.66
2018-09-03T09:41:51.606Z,102256.98
2018-09-03T09:44:20.226Z,102259.90
2018-09-03T09:46:48.887Z,102254.22
2018-09-03T09:49:17.578Z,102258.25
2018-09-03T09:51:46.225Z,102255.02
2018-09-03T09:54:14.921Z,102255.27
2018-09-03T09:56:43.565Z,102256.53
2018-09-03T09:59:12.265Z,102260.41
2018-09-03T10:01:41.083Z,102249.16
2018-09-03T10:04:09.748Z,102257.52
2018-09-03T10:06:38.472Z,102250.23
2018-09-03T10:09:08.120Z,102251.20
2018-09-03T10:11:36.778Z,102255.34
2018-09-03T10:14:05.453Z,102250.52
2018-09-03T10:16:34.075Z,102246.96
2018-09-03T10:19:02.750Z,102247.97
2018-09-03T10:21:31.407Z,102248.98
2018-09-03T10:24:00.053Z,102254.39
2018-09-03T10:26:28.724Z,102253.92
2018-09-03T10:28:57.358Z,102249.30
2018-09-03T10:31:25.988Z,102255.53
2018-09-03T10:33:54.623Z,102247.31
2018-09-03T10:36:23.300Z,102246.49
2018-09-03T10:38:51.927Z,102248.09
2018-09-03T10:41:20.563Z,102247.77
2018-09-03T10:43:49.180Z,102247.19
2018-09-03T10:46:18.029Z,102237.40
2018-09-03T10:48:46.707Z,102239.44
2018-09-03T10:51:15.436Z,102233.53
2018-09-03T10:53:44.051Z,102240.57
2018-09-03T10:56:12.734Z,102249.70
2018-09-03T10:58:41.294Z,102241.55
2018-09-03T11:01:09.935Z,102241.28
2018-09-03T11:03:38.641Z,102237.45
2018-09-03T11:06:07.233Z,102239.52
2018-09-03T11:08:35.951Z,102242.08
2018-09-03T11:11:04.608Z,102241.81
2018-09-03T11:13:33.209Z,102243.98
2018-09-03T11:16:01.831Z,102247.52
2018-09-03T11:18:31.613Z,102254.02
2018-09-03T11:21:00.315Z,102248.25
2018-09-03T11:23:29.045Z,102251.02
2018-09-03T11:25:57.673Z,102248.73
2018-09-03T11:28:26.326Z,102252.70
2018-09-03T11:30:54.966Z,102250.28
2018-09-03T11:33:23.586Z,102251.56
2018-09-03T11:35:52.342Z,102253.52
2018-09-03T11:38:21.380Z,102249.30
2018-09-03T11:40:50.262Z,102249.30
2018-09-03T11:43:18.905Z,102249.49
2018-09-03T11:45:47.566Z,102253.11
2018-09-03T11:48:16.218Z,102252.16
2018-09-03T11:50:44.847Z,102252.08
2018-09-03T11:53:13.449Z,102252.34
2018-09-03T11:55:42.717Z,102247.91
2018-09-03T11:58:11.453Z,102246.94
2018-09-03T12:00:40.147Z,102245.06
2018-09-03T12:03:08.754Z,102246.59
2018-09-03T12:05:37.459Z,102242.70
2018-09-03T12:08:06.078Z,102252.55
2018-09-03T12:10:34.749Z,102243.67
2018-09-03T12:13:03.398Z,102244.37
2018-09-03T12:15:35.277Z,102243.79
2018-09-03T12:18:03.997Z,102242.16
2018-09-03T12:20:32.663Z,102246.78
2018-09-03T12:23:01.353Z,102246.66
2018-09-03T12:25:30.055Z,102245.98
2018-09-03T12:27:58.725Z,102245.46
2018-09-03T12:30:27.363Z,102245.46
2018-09-03T12:32:56.201Z,102247.72
2018-09-03T12:35:24.861Z,102243.87
2018-09-03T12:37:53.505Z,102238.66
2018-09-03T12:40:22.165Z,102241.95
2018-09-03T12:42:50.839Z,102242.88
2018-09-03T12:45:23.876Z,102243.94
2018-09-03T12:47:52.457Z,102239.77
2018-09-03T12:50:21.117Z,102244.73
2018-09-03T12:52:49.720Z,102253.55
2018-09-03T12:55:18.381Z,102252.69
2018-09-03T12:57:46.989Z,102238.79
2018-09-03T13:00:20.445Z,102242.61
2018-09-03T13:02:49.177Z,102242.61
2018-09-03T13:05:18.653Z,102251.14
2018-09-03T13:07:48.019Z,102243.59
2018-09-03T13:10:16.625Z,102242.41
2018-09-03T13:12:45.241Z,102240.44
2018-09-03T13:15:13.876Z,102241.49
2018-09-03T13:17:42.493Z,102242.39
2018-09-03T13:20:11.289Z,102251.81
2018-09-03T13:22:40.123Z,102249.70
2018-09-03T13:25:08.793Z,102258.42
2018-09-03T13:27:37.545Z,102256.75
2018-09-03T13:30:07.120Z,102256.40
2018-09-03T13:32:35.733Z,102253.94
2018-09-03T13:35:04.357Z,102260.28
2018-09-03T13:37:33.184Z,102256.63
2018-09-03T13:40:01.828Z,102253.15
2018-09-03T13:42:30.562Z,102248.98
2018-09-03T13:44:59.065Z,102247.94
2018-09-03T13:47:27.685Z,102251.69
2018-09-03T13:49:56.295Z,102251.49
2018-09-03T13:52:24.957Z,102257.37
2018-09-03T13:54:53.636Z,102253.20
2018-09-03T13:57:23.113Z,102258.38
2018-09-03T13:59:51.728Z,102258.00
2018-09-03T14:02:20.342Z,102256.87
2018-09-03T14:04:48.994Z,102262.59
2018-09-03T14:07:17.585Z,102262.31
2018-09-03T14:09:46.272Z,102256.33
2018-09-03T14:12:15.060Z,102255.12
2018-09-03T14:14:43.685Z,102252.00
2018-09-03T14:17:12.357Z,102247.41
2018-09-03T14:19:41.004Z,102241.08
2018-09-03T14:22:09.637Z,102243.80
2018-09-03T14:24:38.274Z,102240.81
2018-09-03T14:27:06.975Z,102236.19
2018-09-03T14:29:35.584Z,102243.08
2018-09-03T14:32:04.165Z,102250.23
2018-09-03T14:34:32.764Z,102237.75
2018-09-03T14:37:01.426Z,102241.28
2018-09-03T14:39:30.088Z,102240.40
2018-09-03T14:41:58.715Z,102239.02
2018-09-03T14:44:27.294Z,102238.75
2018-09-03T14:46:55.913Z,102237.72
2018-09-03T14:49:24.543Z,102236.52
2018-09-03T14:51:53.160Z,102231.84
2018-09-03T14:54:21.800Z,102235.38
2018-09-03T14:56:50.509Z,102233.48
2018-09-03T14:59:19.162Z,102235.94
2018-09-03T15:01:47.801Z,102235.64
2018-09-03T15:04:16.379Z,102233.64
2018-09-03T15:06:45.018Z,102227.05
2018-09-03T15:09:13.694Z,102225.29
2018-09-03T15:11:42.289Z,102227.77
2018-09-03T15:14:10.921Z,102229.40
2018-09-03T15:16:39.562Z,102219.23
2018-09-03T15:19:08.214Z,102221.62
2018-09-03T15:21:36.829Z,102219.53
2018-09-03T15:24:05.873Z,102216.92
2018-09-03T15:26:34.562Z,102210.65
2018-09-03T15:29:03.098Z,102210.11
2018-09-03T15:31:31.751Z,102205.09
2018-09-03T15:34:00.296Z,102214.49
2018-09-03T15:36:29.082Z,102205.88
2018-09-03T15:38:57.911Z,102210.77
2018-09-03T15:41:26.717Z,102206.52
2018-09-03T15:43:55.429Z,102215.06
2018-09-03T15:46:24.107Z,102207.84
2018-09-03T15:48:52.740Z,102210.69
2018-09-03T15:51:21.324Z,102214.64
2018-09-03T15:53:49.955Z,102215.25
2018-09-03T15:56:18.661Z,102213.11
2018-09-03T15:58:47.466Z,102212.16
2018-09-03T16:01:16.107Z,102210.95
2018-09-03T16:03:44.705Z,102215.51
2018-09-03T16:06:13.355Z,102213.98
2018-09-03T16:08:42.392Z,102211.25
2018-09-03T16:11:10.972Z,102214.51
2018-09-03T16:13:39.626Z,102214.71
2018-09-03T16:16:08.213Z,102213.25
2018-09-03T16:18:36.888Z,102208.84
2018-09-03T16:21:05.517Z,102214.68
2018-09-03T16:23:34.405Z,102210.48
2018-09-03T16:26:03.179Z,102215.58
2018-09-03T16:28:31.777Z,102218.58
2018-09-03T16:31:00.396Z,102215.38
2018-09-03T16:33:29.119Z,102224.34
2018-09-03T16:35:58.040Z,102216.48
2018-09-03T16:38:26.745Z,102217.72
2018-09-03T16:40:55.325Z,102219.04
2018-09-03T16:43:23.937Z,102220.23
2018-09-03T16:45:52.575Z,102214.02
2018-09-03T16:48:21.323Z,102219.70
2018-09-03T16:50:50.013Z,102214.30
2018-09-03T16:53:18.713Z,102217.81
2018-09-03T16:55:47.337Z,102216.46
2018-09-03T16:58:16.123Z,102216.70
2018-09-03T17:00:44.713Z,102210.55
2018-09-03T17:03:13.440Z,102213.89
2018-09-03T17:05:42.309Z,102222.69
2018-09-03T17:08:11.069Z,102229.69
2018-09-03T17:10:39.602Z,102223.77
2018-09-03T17:13:08.232Z,102227.73
2018-09-03T17:15:36.834Z,102223.73
2018-09-03T17:18:05.456Z,102221.83
2018-09-03T17:20:34.162Z,102216.70
2018-09-03T17:23:02.754Z,102220.75
2018-09-03T17:25:31.543Z,102223.13
2018-09-03T17:28:00.167Z,102230.63
2018-09-03T17:30:28.924Z,102231.59
2018-09-03T17:32:57.643Z,102229.80
2018-09-03T17:35:26.216Z,102230.94
2018-09-03T17:37:54.995Z,102231.89
2018-09-03T17:40:23.775Z,102233.23
2018-09-03T17:42:52.407Z,102238.05
2018-09-03T17:45:21.045Z,102234.38
2018-09-03T17:47:49.714Z,102226.25
2018-09-03T17:50:18.545Z,102237.18
2018-09-03T17:52:47.130Z,102238.80
2018-09-03T17:55:15.810Z,102240.22
2018-09-03T17:57:44.426Z,102241.05
2018-09-03T18:00:13.166Z,102236.52
2018-09-03T18:02:42.145Z,102242.56
2018-09-03T18:05:10.790Z,102238.32
2018-09-03T18:07:39.586Z,102237.65
2018-09-03T18:10:08.230Z,102243.61
2018-09-03T18:12:36.829Z,102241.23
2018-09-03T18:15:05.604Z,102241.91
2018-09-03T18:17:34.223Z,102236.98
2018-09-03T18:20:02.795Z,102241.98
2018-09-03T18:22:31.378Z,102247.34
2018-09-03T18:25:00.003Z,102245.84
2018-09-03T18:27:28.637Z,102251.77
2018-09-03T18:29:57.257Z,102257.52
2018-09-03T18:32:25.890Z,102253.73
2018-09-03T18:34:54.486Z,102257.52
2018-09-03T18:37:23.161Z,102254.66
2018-09-03T18:39:51.965Z,102257.68
2018-09-03T18:42:20.596Z,102258.00
2018-09-03T18:44:49.329Z,102253.70
2018-09-03T18:47:18.885Z,102256.72
2018-09-03T18:49:47.418Z,102262.24
2018-09-03T18:52:16.046Z,102263.27
2018-09-03T18:54:44.661Z,102260.34
2018-09-03T18:57:13.317Z,102262.80
2018-09-03T18:59:41.927Z,102262.57
2018-09-03T19:02:10.521Z,102261.81
2018-09-03T19:04:39.108Z,102263.59
2018-09-03T19:07:07.820Z,102268.02
2018-09-03T19:09:36.462Z,102265.25
2018-09-03T19:12:05.204Z,102270.80
2018-09-03T19:14:33.941Z,102273.21
2018-09-03T19:17:02.585Z,102276.41
2018-09-03T19:19:31.332Z,102274.50
2018-09-03T19:21:59.993Z,102280.11
2018-09-03T19:24:28.578Z,102285.09
2018-09-03T19:26:57.652Z,102283.02
2018-09-03T19:29:26.243Z,102288.05
2018-09-03T19:31:54.865Z,102296.83
2018-09-03T19:34:23.497Z,102292.51
2018-09-03T19:36:52.312Z,102291.55
2018-09-03T19:39:20.945Z,102291.78
2018-09-03T19:41:49.600Z,102291.39
2018-09-03T19:44:18.182Z,102292.70
2018-09-03T19:46:46.778Z,102297.98
2018-09-03T19:49:15.341Z,102302.70
2018-09-03T19:51:43.913Z,102304.80
2018-09-03T19:54:12.465Z,102306.88
2018-09-03T19:56:41.154Z,102309.13
2018-09-03T19:59:09.775Z,102301.02
2018-09-03T20:01:38.827Z,102302.33
2018-09-03T20:04:07.538Z,102313.11
2018-09-03T20:06:36.225Z,102312.81
2018-09-03T20:09:05.183Z,102309.31
2018-09-03T20:11:33.869Z,102315.91
2018-09-03T20:14:02.452Z,102332.13
2018-09-03T20:16:31.142Z,102316.17
2018-09-03T20:18:59.793Z,102323.48
2018-09-03T20:21:28.478Z,102325.88
2018-09-03T20:23:57.210Z,102330.55
2018-09-03T20:26:26.065Z,102329.00
2018-09-03T20:28:55.125Z,102329.06
2018-09-03T20:31:23.786Z,102326.36
2018-09-03T20:33:52.521Z,102331.70
2018-09-03T20:36:21.204Z,102330.08
2018-09-03T20:38:49.820Z,102317.84
2018-09-03T20:41:18.414Z,102327.14
2018-09-03T20:43:47.011Z,102322.19
2018-09-03T20:46:15.661Z,102318.78
2018-09-03T20:48:44.309Z,102317.10
2018-09-03T20:51:12.865Z,102320.56
2018-09-03T20:53:41.482Z,102308.34
2018-09-03T20:56:10.069Z,102309.41
2018-09-03T20:58:38.773Z,102309.57
2018-09-03T21:01:07.445Z,102308.41
2018-09-03T21:03:36.126Z,102302.38
2018-09-03T21:06:04.756Z,102307.19
2018-09-03T21:08:33.442Z,102306.48
2018-09-03T21:11:02.178Z,102300.84
2018-09-03T21:13:30.894Z,102314.48
2018-09-03T21:15:59.539Z,102312.25
2018-09-03T21:18:28.227Z,102312.46
2018-09-03T21:20:56.899Z,102317.89
2018-09-03T21:23:25.505Z,102315.41
2018-09-03T21:25:54.139Z,102313.72
2018-09-03T21:28:22.844Z,102310.78
2018-09-03T21:30:51.438Z,102315.66
2018-09-03T21:33:20.061Z,102320.46
2018-09-03T21:35:48.649Z,102324.33
2018-09-03T21:38:17.343Z,102322.70
2018-09-03T21:40:45.973Z,102322.64
2018-09-03T21:43:14.597Z,102334.49
2018-09-03T21:45:43.231Z,102316.11
2018-09-03T21:48:11.856Z,102320.16
2018-09-03T21:50:40.467Z,102317.89
2018-09-03T21:53:09.117Z,102314.80
2018-09-03T21:55:37.900Z,102321.78
2018-09-03T21:58:06.480Z,102317.52
2018-09-03T22:00:35.182Z,102325.02
2018-09-03T22:03:03.865Z,102315.59
2018-09-03T22:05:32.533Z,102313.02
2018-09-03T22:08:01.186Z,102317.52
2018-09-03T22:10:29.808Z,102317.13
2018-09-03T22:12:58.411Z,102315.44
2018-09-03T22:15:27.101Z,102313.32
2018-09-03T22:17:55.700Z,102313.72
2018-09-03T22:20:24.310Z,102319.08
2018-09-03T22:22:52.910Z,102320.91
2018-09-03T22:25:21.570Z,102316.59
2018-09-03T22:27:50.258Z,102319.84
2018-09-03T22:30:18.973Z,102317.76
2018-09-03T22:32:47.556Z,102317.67
2018-09-03T22:35:16.351Z,102314.97
2018-09-03T22:37:44.965Z,102315.89
2018-09-03T22:40:13.654Z,102313.66
2018-09-03T22:42:42.287Z,102310.63
2018-09-03T22:45:10.946Z,102304.04
2018-09-03T22:47:39.661Z,102302.66
2018-09-03T22:50:08.542Z,102303.48
2018-09-03T22:52:37.152Z,102308.30
2018-09-03T22:55:05.962Z,102306.12
2018-09-03T22:57:34.581Z,102307.93
2018-09-03T23:00:03.460Z,102311.48
2018-09-03T23:02:36.228Z,102314.02
2018-09-03T23:05:05.175Z,102314.02
2018-09-03T23:07:33.749Z,102317.15
2018-09-03T23:10:02.381Z,102307.07
2018-09-03T23:12:31.120Z,102316.66
2018-09-03T23:14:59.701Z,102314.42
2018-09-03T23:17:28.354Z,102297.16
2018-09-03T23:19:57.033Z,102297.92
2018-09-03T23:22:25.693Z,102298.78
2018-09-03T23:24:54.575Z,102301.41
2018-09-03T23:27:23.199Z,102306.22
2018-09-03T23:29:51.881Z,102303.58
2018-09-03T23:32:20.696Z,102301.41
2018-09-03T23:34:49.359Z,102299.33
2018-09-03T23:37:17.965Z,102298.47
2018-09-03T23:39:46.549Z,102297.61
2018-09-03T23:42:15.211Z,102292.49
2018-09-03T23:44:43.873Z,102302.17
2018-09-03T23:47:12.541Z,102302.17
2018-09-03T23:49:41.235Z,102300.39
2018-09-03T23:52:09.869Z,102299.08
2018-09-03T23:54:38.437Z,102300.17
2018-09-03T23:57:07.116Z,102299.17
2018-09-03T23:59:35.755Z,102300.02
